Time;durP1;ratioP1;P1;durP2;ratioP2;P2;SDS_P1;SDS_P2;PMS_P1;PMS_P2;Temp;Humidity;BMP_temperature;BMP_pressure;BME280_temperature;BME280_humidity;BME280_pressure;Samples;Min_cycle;Max_cycle;Signal;HPM_P1;HPM_P2
2021/07/23 00:00:15;;;;;;;1.08;1.05;;;22.50;89.90;;;;;;4993901;28;20129;-76
2021/07/23 00:02:41;;;;;;;1.52;1.42;;;22.60;90.10;;;;;;4993691;28;20035;-80
2021/07/23 00:05:08;;;;;;;1.42;1.35;;;22.50;90.30;;;;;;4993961;28;20054;-80
2021/07/23 00:07:33;;;;;;;2.90;1.52;;;22.60;90.50;;;;;;4976168;28;20038;-77
2021/07/23 00:09:59;;;;;;;1.70;1.27;;;22.60;90.40;;;;;;4993809;28;20042;-79
2021/07/23 00:12:25;;;;;;;1.05;1.02;;;22.40;90.50;;;;;;4993362;28;20057;-78
2021/07/23 00:14:50;;;;;;;1.13;1.10;;;22.40;91.00;;;;;;4993635;28;20423;-76
2021/07/23 00:17:16;;;;;;;1.02;1.02;;;22.40;91.30;;;;;;4993584;28;20122;-77
2021/07/23 00:19:42;;;;;;;1.33;1.23;;;22.30;91.30;;;;;;4993698;28;20035;-77
2021/07/23 00:22:08;;;;;;;1.73;1.63;;;22.20;91.80;;;;;;4993646;28;20479;-81
2021/07/23 00:24:33;;;;;;;1.02;1.02;;;22.10;92.10;;;;;;4992759;28;20662;-82
2021/07/23 00:26:59;;;;;;;0.90;0.90;;;22.10;92.40;;;;;;4993475;28;20042;-77
2021/07/23 00:29:25;;;;;;;1.30;1.20;;;22.00;92.90;;;;;;4976049;28;20129;-80
2021/07/23 00:31:50;;;;;;;1.00;1.00;;;22.10;92.90;;;;;;4992979;28;20065;-77
2021/07/23 00:34:16;;;;;;;2.55;2.35;;;22.10;92.90;;;;;;4993149;28;20043;-79
2021/07/23 00:43:26;;;;;;;2.40;1.90;;;22.00;93.70;;;;;;4992945;28;20141;-77
2021/07/23 00:45:53;;;;;;;1.60;1.50;;;22.00;93.90;;;;;;4993408;28;20042;-82
2021/07/23 00:48:19;;;;;;;13.85;2.08;;;22.00;94.00;;;;;;4993422;28;20513;-78
2021/07/23 00:50:47;;;;;;;1.45;1.35;;;22.00;94.40;;;;;;4993479;28;20039;-78
2021/07/23 00:53:14;;;;;;;0.90;0.90;;;22.00;94.30;;;;;;4992745;28;20046;-77
2021/07/23 00:59:03;;;;;;;1.00;1.00;;;21.90;94.90;;;;;;4992798;28;20545;-77
2021/07/23 01:01:30;;;;;;;1.00;1.00;;;21.80;95.10;;;;;;4992759;28;20030;-76
2021/07/23 01:03:56;;;;;;;1.48;1.38;;;21.90;95.00;;;;;;4975151;28;20133;-77
2021/07/23 01:06:22;;;;;;;1.75;1.65;;;21.80;95.40;;;;;;4992893;28;20433;-78
2021/07/23 01:08:49;;;;;;;1.00;1.00;;;21.80;95.60;;;;;;4975164;28;20051;-76
2021/07/23 01:11:15;;;;;;;1.00;1.00;;;22.00;95.30;;;;;;4992792;28;20032;-80
2021/07/23 01:17:09;;;;;;;1.38;1.27;;;22.00;94.90;;;;;;4992753;28;20049;-80
2021/07/23 01:19:42;;;;;;;1.30;1.20;;;21.90;95.10;;;;;;4992396;28;20038;-79
2021/07/23 01:22:11;;;;;;;2.08;1.88;;;21.90;95.50;;;;;;4991957;28;20574;-78
2021/07/23 01:24:37;;;;;;;1.10;1.10;;;21.90;95.70;;;;;;4974097;28;20049;-77
2021/07/23 01:27:03;;;;;;;0.90;0.90;;;21.70;96.30;;;;;;4992549;28;20035;-77
2021/07/23 01:29:28;;;;;;;0.93;0.93;;;21.80;96.30;;;;;;4992319;28;20486;-78
2021/07/23 01:31:54;;;;;;;1.00;1.00;;;21.70;96.20;;;;;;4991831;28;20027;-78
2021/07/23 01:34:20;;;;;;;1.10;1.08;;;21.70;96.10;;;;;;4974744;28;22343;-77
2021/07/23 01:36:46;;;;;;;0.98;0.95;;;21.60;97.10;;;;;;4992417;28;20494;-79
2021/07/23 01:39:14;;;;;;;1.15;1.10;;;21.60;97.10;;;;;;4974693;28;20038;-80
2021/07/23 01:41:40;;;;;;;1.10;1.10;;;21.50;97.40;;;;;;4974985;28;20046;-79
2021/07/23 01:44:06;;;;;;;1.30;1.20;;;21.50;97.70;;;;;;4992427;28;20410;-77
2021/07/23 01:46:32;;;;;;;0.90;0.90;;;21.30;98.10;;;;;;4992347;28;20049;-78
2021/07/23 01:48:57;;;;;;;1.20;1.10;;;21.40;98.50;;;;;;4992675;28;20430;-78
2021/07/23 01:51:24;;;;;;;1.00;1.00;;;21.40;98.60;;;;;;4974960;28;20093;-77
2021/07/23 01:53:49;;;;;;;1.02;1.02;;;21.40;98.90;;;;;;4991736;28;20026;-79
2021/07/23 01:56:15;;;;;;;1.00;1.00;;;21.50;98.90;;;;;;4992167;28;20043;-78
2021/07/23 01:58:41;;;;;;;1.17;1.10;;;21.40;99.00;;;;;;4992196;28;20110;-82
2021/07/23 02:01:07;;;;;;;1.27;1.17;;;21.40;99.50;;;;;;4991913;28;20100;-77
2021/07/23 02:03:34;;;;;;;1.20;1.10;;;21.40;99.20;;;;;;4992176;28;20043;-81
2021/07/23 02:05:59;;;;;;;1.05;1.05;;;21.30;99.60;;;;;;4974901;28;20487;-79
2021/07/23 02:08:25;;;;;;;1.02;1.02;;;21.30;99.80;;;;;;4991967;28;20043;-84
2021/07/23 02:10:51;;;;;;;0.90;0.90;;;21.40;99.80;;;;;;4974356;28;20030;-79
2021/07/23 02:13:17;;;;;;;0.90;0.90;;;21.30;99.70;;;;;;4991347;28;20125;-80
2021/07/23 02:15:44;;;;;;;1.40;1.30;;;21.30;99.90;;;;;;4992047;28;20125;-86
2021/07/23 02:18:10;;;;;;;1.67;1.35;;;21.20;99.90;;;;;;4991983;28;20027;-80
2021/07/23 02:20:37;;;;;;;0.90;0.90;;;21.10;99.90;;;;;;4991774;28;20050;-84
2021/07/23 02:23:03;;;;;;;1.42;1.33;;;21.00;99.90;;;;;;4991449;28;20066;-84
2021/07/23 02:25:31;;;;;;;1.38;1.25;;;21.10;99.90;;;;;;4991874;28;20034;-82
2021/07/23 02:27:57;;;;;;;1.15;1.08;;;21.10;99.90;;;;;;4992228;28;20042;-85
2021/07/23 02:30:23;;;;;;;1.20;1.10;;;21.20;99.90;;;;;;4991594;28;20426;-81
2021/07/23 02:32:48;;;;;;;1.27;1.17;;;21.10;99.90;;;;;;4991939;28;20100;-80
2021/07/23 02:35:14;;;;;;;0.90;0.90;;;21.00;99.90;;;;;;4992129;28;20486;-81
2021/07/23 02:37:40;;;;;;;1.00;1.00;;;20.90;99.90;;;;;;4995767;28;20030;-81
2021/07/23 02:40:07;;;;;;;2.13;1.92;;;20.90;99.90;;;;;;4995086;28;20150;-78
2021/07/23 02:42:32;;;;;;;2.45;2.25;;;20.90;99.90;;;;;;4994999;28;20026;-81
2021/07/23 02:44:58;;;;;;;1.00;1.00;;;21.00;99.90;;;;;;4995315;28;20041;-81
2021/07/23 02:47:24;;;;;;;1.52;1.42;;;21.00;99.90;;;;;;4995613;28;20490;-77
2021/07/23 02:49:49;;;;;;;1.08;1.08;;;20.90;99.90;;;;;;4995123;28;20046;-76
2021/07/23 02:52:15;;;;;;;1.48;1.38;;;20.90;99.90;;;;;;4995450;28;20054;-75
2021/07/23 02:54:41;;;;;;;1.20;1.10;;;20.60;99.90;;;;;;4994741;28;20062;-84
2021/07/23 02:57:07;;;;;;;1.02;1.02;;;20.70;99.90;;;;;;4995305;28;20039;-82
2021/07/23 02:59:32;;;;;;;1.10;1.10;;;20.80;99.90;;;;;;4995042;28;20466;-83
2021/07/23 03:01:58;;;;;;;1.63;1.52;;;20.80;99.90;;;;;;4994768;28;20045;-79
2021/07/23 03:04:24;;;;;;;2.10;1.90;;;20.90;99.90;;;;;;4994740;28;20046;-81
2021/07/23 03:06:50;;;;;;;1.15;1.10;;;20.80;99.90;;;;;;4995197;28;20034;-81
2021/07/23 03:09:15;;;;;;;1.13;1.10;;;20.70;99.90;;;;;;5002605;28;20034;-82
2021/07/23 03:11:41;;;;;;;1.95;1.27;;;20.80;99.90;;;;;;5005863;28;20386;-80
2021/07/23 03:14:07;;;;;;;1.00;1.00;;;20.70;99.90;;;;;;4996862;28;20157;-80
2021/07/23 03:16:32;;;;;;;1.15;1.13;;;20.60;99.90;;;;;;5014882;28;20137;-82
2021/07/23 03:18:58;;;;;;;1.10;1.10;;;20.50;99.90;;;;;;5014863;28;20081;-77
2021/07/23 03:21:24;;;;;;;1.55;1.45;;;20.50;99.90;;;;;;5014116;28;20674;-81
2021/07/23 03:23:50;;;;;;;1.40;1.30;;;20.50;99.90;;;;;;5014683;28;20034;-81
2021/07/23 03:26:15;;;;;;;1.25;1.15;;;20.40;99.90;;;;;;4996938;28;20060;-78
2021/07/23 03:28:41;;;;;;;1.58;1.33;;;20.50;99.90;;;;;;5013918;28;20026;-76
2021/07/23 03:31:14;;;;;;;1.02;1.02;;;20.50;99.90;;;;;;5014419;28;20477;-83
2021/07/23 03:33:40;;;;;;;1.48;1.38;;;20.40;99.90;;;;;;5010070;28;20053;-78
2021/07/23 03:36:07;;;;;;;1.67;1.58;;;20.50;99.90;;;;;;4994609;28;20042;-81
2021/07/23 03:38:33;;;;;;;1.92;1.80;;;20.50;99.90;;;;;;4994515;28;20026;-83
2021/07/23 03:40:58;;;;;;;1.13;1.10;;;20.40;99.90;;;;;;4994386;28;20038;-82
2021/07/23 03:43:24;;;;;;;1.67;1.58;;;20.40;99.90;;;;;;4976943;28;20042;-83
2021/07/23 03:45:50;;;;;;;1.98;1.77;;;20.50;99.90;;;;;;4994571;28;20034;-80
2021/07/23 03:48:16;;;;;;;1.10;1.10;;;20.50;99.90;;;;;;4993427;28;20109;-84
2021/07/23 03:50:41;;;;;;;1.60;1.50;;;20.60;99.90;;;;;;4976929;28;20173;-80
2021/07/23 03:53:07;;;;;;;1.77;1.67;;;20.40;99.90;;;;;;4994503;28;20041;-81
2021/07/23 03:55:33;;;;;;;1.60;1.50;;;20.40;99.90;;;;;;4976624;28;20065;-80
2021/07/23 03:57:58;;;;;;;1.30;1.20;;;20.50;99.90;;;;;;4993939;28;20491;-79
2021/07/23 04:00:24;;;;;;;2.72;1.45;;;20.60;99.90;;;;;;4994048;28;20490;-78
2021/07/23 04:02:50;;;;;;;1.50;1.40;;;20.60;99.90;;;;;;4976671;28;20034;-79
2021/07/23 04:05:16;;;;;;;1.13;1.10;;;20.70;99.90;;;;;;4976595;28;20046;-80
2021/07/23 04:07:41;;;;;;;1.17;1.10;;;20.60;99.90;;;;;;4994267;28;20068;-81
2021/07/23 04:10:08;;;;;;;1.27;1.17;;;20.70;99.90;;;;;;4993936;28;20042;-81
2021/07/23 04:12:34;;;;;;;1.85;1.75;;;20.70;99.90;;;;;;4993644;28;20042;-81
2021/07/23 04:15:01;;;;;;;1.42;1.33;;;20.60;99.90;;;;;;4993527;28;20478;-79
2021/07/23 04:17:26;;;;;;;1.30;1.20;;;20.60;99.90;;;;;;4994256;28;20122;-80
2021/07/23 04:19:52;;;;;;;1.38;1.27;;;20.50;99.90;;;;;;4976432;28;20518;-83
2021/07/23 04:22:18;;;;;;;1.15;1.10;;;20.50;99.90;;;;;;4993678;28;20092;-76
2021/07/23 04:24:44;;;;;;;3.15;1.52;;;20.70;99.90;;;;;;4993546;28;20037;-82
2021/07/23 04:27:10;;;;;;;1.00;1.00;;;20.70;99.90;;;;;;4993669;28;20042;-82
2021/07/23 04:29:35;;;;;;;4.85;4.00;;;20.80;99.90;;;;;;4993675;28;20390;-82
2021/07/23 04:32:01;;;;;;;1.08;1.05;;;20.80;99.90;;;;;;4993654;28;20093;-82
2021/07/23 04:34:27;;;;;;;1.00;1.00;;;20.90;99.90;;;;;;4976016;28;20117;-85
2021/07/23 04:36:52;;;;;;;1.30;1.23;;;21.00;99.90;;;;;;4976198;28;20435;-85
2021/07/23 04:39:18;;;;;;;0.90;0.90;;;21.00;99.90;;;;;;4993304;28;20056;-85
2021/07/23 04:41:44;;;;;;;1.17;1.10;;;21.00;99.90;;;;;;4975833;28;20061;-83
2021/07/23 04:44:10;;;;;;;1.88;1.77;;;21.00;99.90;;;;;;4975906;28;20085;-84
2021/07/23 04:46:35;;;;;;;1.80;1.52;;;21.10;99.90;;;;;;4975647;28;20125;-80
2021/07/23 04:49:02;;;;;;;0.98;0.98;;;21.20;99.90;;;;;;4975859;28;20481;-82
2021/07/23 04:51:31;;;;;;;1.40;1.30;;;21.30;99.90;;;;;;4993126;28;20073;-75
2021/07/23 04:53:57;;;;;;;0.90;0.90;;;21.40;99.90;;;;;;4992994;28;20030;-82
2021/07/23 04:56:23;;;;;;;1.08;1.08;;;21.30;99.90;;;;;;4993263;28;20038;-80
2021/07/23 04:58:48;;;;;;;3.40;2.72;;;21.40;99.90;;;;;;4992843;28;20505;-76
2021/07/23 05:01:16;;;;;;;8.52;5.82;;;21.30;99.90;;;;;;4992238;28;20034;-76
2021/07/23 05:03:43;;;;;;;11.30;6.97;;;21.30;99.90;;;;;;4993023;28;20116;-83
2021/07/23 05:06:10;;;;;;;3.42;3.13;;;21.40;99.90;;;;;;4993165;28;20391;-77
2021/07/23 05:08:36;;;;;;;3.85;1.50;;;21.50;99.90;;;;;;4992413;28;20034;-80
2021/07/23 05:11:10;;;;;;;2.28;2.10;;;21.60;99.90;;;;;;4992734;28;20112;-76
2021/07/23 05:13:36;;;;;;;6.30;5.05;;;21.70;99.90;;;;;;4992519;28;20431;-78
2021/07/23 05:16:03;;;;;;;10.10;7.88;;;21.70;99.90;;;;;;4974908;28;20569;-79
2021/07/23 05:18:30;;;;;;;5.38;2.22;;;21.70;99.90;;;;;;4975417;28;20529;-80
2021/07/23 05:20:56;;;;;;;2.65;2.45;;;21.60;99.90;;;;;;4992652;28;20054;-82
2021/07/23 05:23:22;;;;;;;1.45;1.35;;;21.50;99.90;;;;;;4974558;28;20557;-79
2021/07/23 05:25:48;;;;;;;1.33;1.20;;;21.40;99.90;;;;;;4992540;28;20109;-77
2021/07/23 05:28:14;;;;;;;1.00;1.00;;;21.30;99.90;;;;;;4992512;28;20042;-79
2021/07/23 05:30:41;;;;;;;1.15;1.10;;;21.60;99.90;;;;;;4975052;28;20036;-76
2021/07/23 05:33:07;;;;;;;0.90;0.90;;;21.90;99.90;;;;;;4992522;28;20386;-80
2021/07/23 05:35:33;;;;;;;1.33;1.23;;;22.10;99.90;;;;;;4992185;28;20121;-80
2021/07/23 05:37:59;;;;;;;1.27;1.17;;;22.10;99.90;;;;;;4992063;28;20080;-81
2021/07/23 05:40:25;;;;;;;0.90;0.90;;;22.10;99.90;;;;;;4992257;28;20483;-81
2021/07/23 05:42:53;;;;;;;1.65;1.55;;;22.20;99.90;;;;;;4992088;28;20033;-79
2021/07/23 05:45:20;;;;;;;1.02;0.98;;;22.30;99.90;;;;;;4991377;28;20038;-79
2021/07/23 05:47:45;;;;;;;0.95;0.95;;;22.30;99.90;;;;;;4992287;28;20391;-82
2021/07/23 05:50:11;;;;;;;1.23;1.13;;;22.20;99.90;;;;;;4972589;28;20549;-80
2021/07/23 05:52:38;;;;;;;1.92;1.10;;;22.20;99.90;;;;;;4991882;28;20114;-84
2021/07/23 05:55:04;;;;;;;1.20;1.10;;;22.20;99.90;;;;;;4974032;28;20655;-76
2021/07/23 05:57:29;;;;;;;0.90;0.90;;;22.30;99.90;;;;;;4991841;28;20035;-80
2021/07/23 05:59:55;;;;;;;5.50;2.88;;;22.50;99.90;;;;;;4974477;28;20042;-79
2021/07/23 06:02:21;;;;;;;1.20;1.13;;;22.40;99.90;;;;;;4974055;28;20438;-82
2021/07/23 06:04:47;;;;;;;1.75;1.65;;;22.10;99.90;;;;;;4991521;28;20030;-88
2021/07/23 06:07:14;;;;;;;0.95;0.95;;;22.20;99.90;;;;;;4974359;28;20038;-82
2021/07/23 06:09:40;;;;;;;1.55;1.45;;;22.30;99.90;;;;;;4992546;28;20026;-83
2021/07/23 06:12:06;;;;;;;5.35;3.45;;;22.50;99.90;;;;;;4980392;28;20042;-77
2021/07/23 06:14:32;;;;;;;2.20;2.00;;;22.60;99.90;;;;;;4997998;28;20117;-79
2021/07/23 06:16:58;;;;;;;0.82;0.82;;;22.60;99.90;;;;;;4998001;28;20496;-79
2021/07/23 06:19:24;;;;;;;0.90;0.90;;;22.60;99.90;;;;;;4998020;28;20023;-84
2021/07/23 06:21:50;;;;;;;0.90;0.90;;;22.80;99.90;;;;;;5011384;28;20042;-85
2021/07/23 06:24:16;;;;;;;4.22;2.65;;;22.80;99.90;;;;;;5000434;28;20041;-82
2021/07/23 06:26:43;;;;;;;1.25;1.15;;;22.80;99.90;;;;;;5017617;28;20034;-89
2021/07/23 06:29:09;;;;;;;1.42;1.33;;;22.90;99.90;;;;;;5017923;28;20113;-79
2021/07/23 06:31:35;;;;;;;1.33;1.23;;;23.10;99.90;;;;;;5018001;28;20037;-77
2021/07/23 06:34:04;;;;;;;2.40;2.20;;;23.20;99.90;;;;;;5017995;28;20034;-82
2021/07/23 06:36:33;;;;;;;2.63;2.03;;;23.20;99.90;;;;;;5018649;28;20536;-81
2021/07/23 06:38:59;;;;;;;1.00;1.00;;;23.30;99.90;;;;;;5017964;28;20038;-85
2021/07/23 06:41:25;;;;;;;0.80;0.80;;;23.20;99.90;;;;;;5018087;28;20042;-86
2021/07/23 06:43:51;;;;;;;1.15;1.05;;;23.20;99.90;;;;;;5000170;28;20367;-82
2021/07/23 06:46:16;;;;;;;0.70;0.70;;;23.30;99.90;;;;;;5018079;28;20125;-86
2021/07/23 06:48:42;;;;;;;1.20;1.10;;;23.40;99.90;;;;;;5017742;28;20038;-77
2021/07/23 06:51:08;;;;;;;1.67;1.58;;;23.30;99.90;;;;;;5018215;28;20397;-79
2021/07/23 06:53:34;;;;;;;0.98;0.98;;;23.40;99.90;;;;;;5018702;28;20374;-81
2021/07/23 06:56:02;;;;;;;3.03;2.70;;;23.10;99.90;;;;;;5017510;28;20042;-81
2021/07/23 06:58:28;;;;;;;3.58;3.22;;;23.30;99.90;;;;;;5000110;28;20133;-79
2021/07/23 07:00:54;;;;;;;0.95;0.95;;;23.50;99.90;;;;;;5017473;28;20109;-83
2021/07/23 07:03:19;;;;;;;3.15;1.92;;;23.70;99.90;;;;;;5017699;28;20030;-78
2021/07/23 07:05:50;;;;;;;0.90;0.90;;;23.70;99.90;;;;;;5000434;28;20068;-78
2021/07/23 07:08:16;;;;;;;3.08;1.80;;;23.60;99.90;;;;;;4999904;28;20070;-79
2021/07/23 07:10:42;;;;;;;1.27;1.17;;;23.60;99.90;;;;;;5017141;28;20041;-79
2021/07/23 07:13:07;;;;;;;1.10;1.00;;;23.80;99.60;;;;;;5016957;28;20045;-80
2021/07/23 07:15:33;;;;;;;1.08;1.02;;;23.90;99.90;;;;;;4999832;28;20041;-80
2021/07/23 07:18:00;;;;;;;0.70;0.70;;;24.00;99.40;;;;;;4999084;28;20038;-81
2021/07/23 07:20:26;;;;;;;0.80;0.80;;;24.10;98.00;;;;;;4999764;28;20045;-83
2021/07/23 07:22:53;;;;;;;1.80;1.55;;;24.10;97.20;;;;;;5013250;28;20034;-78
2021/07/23 07:25:23;;;;;;;0.75;0.75;;;23.80;97.20;;;;;;5013910;28;20048;-84
2021/07/23 07:27:49;;;;;;;1.95;1.58;;;23.80;97.10;;;;;;4996858;28;20069;-80
2021/07/23 07:30:16;;;;;;;0.95;0.90;;;24.10;97.00;;;;;;5014170;28;20565;-80
2021/07/23 07:32:42;;;;;;;1.17;1.08;;;24.40;97.50;;;;;;4996254;28;20037;-83
2021/07/23 07:35:09;;;;;;;2.28;1.17;;;24.60;96.60;;;;;;4977459;28;20069;-80
2021/07/23 07:37:34;;;;;;;0.70;0.70;;;24.70;95.90;;;;;;4993817;28;20042;-83
2021/07/23 07:40:00;;;;;;;0.70;0.70;;;24.90;95.70;;;;;;4994243;28;20089;-78
2021/07/23 07:42:26;;;;;;;0.95;0.93;;;25.00;95.00;;;;;;4994192;28;20045;-77
2021/07/23 07:44:52;;;;;;;0.70;0.70;;;25.00;95.10;;;;;;4976676;28;20040;-78
2021/07/23 07:47:18;;;;;;;0.88;0.82;;;25.00;94.90;;;;;;4976437;28;20034;-77
2021/07/23 07:49:43;;;;;;;1.27;1.17;;;25.00;94.80;;;;;;4976118;28;20050;-76
2021/07/23 07:52:09;;;;;;;13.93;1.55;;;24.90;94.40;;;;;;4994095;28;20280;-81
2021/07/23 07:54:35;;;;;;;0.60;0.60;;;24.90;94.90;;;;;;4993802;28;20034;-82
2021/07/23 07:57:08;;;;;;;0.85;0.80;;;25.10;94.20;;;;;;4994238;28;20081;-80
2021/07/23 07:59:34;;;;;;;0.82;0.82;;;25.20;94.20;;;;;;4993889;28;20030;-78
2021/07/23 08:01:59;;;;;;;0.95;0.95;;;25.20;93.00;;;;;;4993616;28;20053;-77
2021/07/23 08:04:28;;;;;;;1.08;0.73;;;25.20;93.30;;;;;;4983438;28;20037;-82
2021/07/23 08:06:54;;;;;;;0.60;0.60;;;25.40;94.00;;;;;;4987952;28;20041;-89
2021/07/23 08:09:21;;;;;;;0.73;0.73;;;25.50;92.80;;;;;;4983857;28;20038;-87
2021/07/23 08:11:46;;;;;;;0.75;0.75;;;25.50;93.20;;;;;;5003488;28;20849;-83
2021/07/23 08:14:12;;;;;;;0.82;0.82;;;25.10;91.70;;;;;;4996023;28;20510;-82
2021/07/23 08:16:38;;;;;;;0.50;0.50;;;25.10;92.00;;;;;;4976781;28;20042;-87
2021/07/23 08:19:04;;;;;;;0.80;0.80;;;25.40;92.10;;;;;;4976344;28;20049;-86
2021/07/23 08:21:32;;;;;;;0.60;0.60;;;25.60;92.00;;;;;;4976612;28;20043;-83
2021/07/23 08:24:02;;;;;;;1.70;1.60;;;25.60;91.10;;;;;;4976348;28;20248;-86
2021/07/23 08:26:29;;;;;;;0.60;0.60;;;25.60;91.40;;;;;;4976435;28;20065;-85
2021/07/23 08:28:54;;;;;;;1.40;1.30;;;25.60;91.40;;;;;;4977521;28;20065;-90
2021/07/23 08:31:23;;;;;;;0.50;0.50;;;25.70;90.70;;;;;;4994246;28;20113;-89
2021/07/23 08:33:49;;;;;;;0.60;0.60;;;25.50;90.60;;;;;;4976651;28;20078;-88
2021/07/23 08:36:15;;;;;;;0.50;0.50;;;25.20;90.80;;;;;;4977263;28;20402;-91
2021/07/23 08:38:40;;;;;;;0.75;0.75;;;25.50;91.70;;;;;;4976981;28;20482;-82
2021/07/23 08:41:10;;;;;;;0.93;0.93;;;25.70;90.30;;;;;;4976439;28;20031;-87
2021/07/23 08:43:37;;;;;;;1.63;1.42;;;25.80;90.40;;;;;;4993983;28;20031;-92
2021/07/23 08:46:03;;;;;;;1.55;1.27;;;25.90;89.10;;;;;;4993692;28;20081;-85
2021/07/23 08:48:29;;;;;;;1.27;1.17;;;26.00;89.40;;;;;;4975775;28;20046;-85
2021/07/23 08:50:55;;;;;;;0.50;0.50;;;26.10;88.80;;;;;;4976822;28;20085;-91
2021/07/23 08:53:21;;;;;;;1.00;0.95;;;26.10;90.30;;;;;;4975966;28;20030;-92
2021/07/23 08:55:47;;;;;;;1.30;0.88;;;26.00;90.20;;;;;;4975891;28;20045;-89
2021/07/23 08:58:15;;;;;;;1.23;0.90;;;26.10;88.00;;;;;;4976091;28;20026;-87
2021/07/23 09:00:41;;;;;;;0.70;0.70;;;26.20;87.30;;;;;;4976340;28;20034;-82
2021/07/23 09:03:09;;;;;;;3.67;1.42;;;26.20;85.40;;;;;;4975241;28;20085;-81
2021/07/23 09:05:41;;;;;;;1.95;1.73;;;26.10;87.00;;;;;;4992765;28;20061;-82
2021/07/23 09:08:20;;;;;;;11.35;0.98;;;26.40;86.10;;;;;;4992646;28;20030;-83
2021/07/23 09:11:00;;;;;;;0.57;0.57;;;26.60;86.00;;;;;;4992587;28;20030;-83
2021/07/23 09:13:26;;;;;;;1.38;1.27;;;26.80;83.90;;;;;;4992527;28;20038;-86
2021/07/23 09:15:52;;;;;;;1.45;0.70;;;27.10;84.10;;;;;;4975242;28;20101;-87
2021/07/23 09:18:33;;;;;;;0.65;0.65;;;27.30;82.80;;;;;;4995690;28;20359;-85
2021/07/23 09:20:59;;;;;;;1.75;1.10;;;27.60;81.50;;;;;;4992376;28;20043;-80
2021/07/23 09:23:32;;;;;;;0.82;0.82;;;27.70;81.40;;;;;;4975151;28;20418;-86
2021/07/23 09:26:08;;;;;;;0.60;0.60;;;27.80;80.00;;;;;;4974855;28;20064;-79
2021/07/23 09:28:35;;;;;;;1.10;0.80;;;27.80;81.10;;;;;;4974506;28;20038;-82
2021/07/23 09:31:06;;;;;;;0.43;0.43;;;27.60;82.00;;;;;;4974786;28;20125;-81
2021/07/23 09:33:40;;;;;;;0.90;0.80;;;27.50;79.90;;;;;;4992423;28;20030;-82
2021/07/23 09:36:11;;;;;;;0.52;0.52;;;27.70;79.30;;;;;;4992154;28;20061;-76
2021/07/23 09:38:41;;;;;;;0.50;0.50;;;28.00;79.40;;;;;;4992536;28;20434;-80
2021/07/23 09:41:11;;;;;;;0.70;0.70;;;27.80;77.40;;;;;;4991988;28;20061;-80
2021/07/23 09:43:42;;;;;;;0.50;0.50;;;28.10;77.00;;;;;;4974845;28;20084;-84
2021/07/23 09:46:20;;;;;;;0.40;0.40;;;28.00;76.10;;;;;;4991435;28;20113;-79
2021/07/23 09:48:48;;;;;;;0.47;0.47;;;28.30;75.70;;;;;;4992346;28;20030;-84
2021/07/23 09:51:16;;;;;;;0.70;0.70;;;28.20;76.30;;;;;;4991888;28;20089;-82
2021/07/23 09:53:42;;;;;;;0.85;0.63;;;28.10;74.50;;;;;;4991500;28;20034;-82
2021/07/23 09:56:10;;;;;;;0.50;0.50;;;28.50;74.80;;;;;;4991745;28;20133;-84
2021/07/23 09:58:44;;;;;;;0.90;0.68;;;28.60;72.00;;;;;;4991998;28;20034;-80
2021/07/23 10:01:14;;;;;;;0.45;0.45;;;28.60;72.20;;;;;;4974032;28;20041;-82
2021/07/23 10:03:46;;;;;;;0.50;0.50;;;28.70;72.90;;;;;;4974763;28;20054;-84
2021/07/23 10:06:43;;;;;;;1.17;0.98;;;28.70;71.20;;;;;;4974590;28;20049;-83
2021/07/23 10:09:16;;;;;;;0.60;0.60;;;28.30;69.50;;;;;;4984233;28;20038;-82
2021/07/23 10:11:44;;;;;;;0.32;0.32;;;28.20;71.30;;;;;;4991638;28;20042;-80
2021/07/23 10:14:15;;;;;;;0.43;0.43;;;28.30;70.90;;;;;;4988537;28;20030;-91
2021/07/23 10:16:41;;;;;;;1.55;1.42;;;28.30;71.70;;;;;;4974925;28;20070;-89
2021/07/23 10:19:07;;;;;;;1.50;1.25;;;28.30;71.90;;;;;;4991742;28;20077;-88
2021/07/23 10:21:34;;;;;;;1.33;1.05;;;28.10;71.30;;;;;;4974567;28;20486;-81
2021/07/23 10:24:01;;;;;;;1.15;1.08;;;28.30;71.60;;;;;;4991449;28;20038;-81
2021/07/23 10:26:31;;;;;;;0.55;0.55;;;28.50;70.80;;;;;;4991507;28;20034;-81
2021/07/23 10:28:58;;;;;;;0.40;0.40;;;28.90;69.60;;;;;;4991637;28;20505;-83
2021/07/23 10:31:31;;;;;;;0.40;0.40;;;28.80;69.40;;;;;;4991594;28;20034;-82
2021/07/23 10:34:02;;;;;;;2.03;1.33;;;28.60;68.40;;;;;;4991783;28;20030;-84
2021/07/23 10:36:30;;;;;;;1.02;0.93;;;28.60;67.60;;;;;;4991106;28;20101;-81
2021/07/23 10:39:04;;;;;;;0.35;0.35;;;28.80;66.40;;;;;;4973500;28;20031;-82
2021/07/23 10:41:53;;;;;;;1.63;0.98;;;29.30;66.60;;;;;;4973899;28;20093;-82
2021/07/23 10:44:32;;;;;;;2.33;1.10;;;29.30;66.30;;;;;;4945820;28;20683;-89
2021/07/23 10:46:59;;;;;;;0.70;0.70;;;29.10;66.50;;;;;;4974013;28;20112;-79
2021/07/23 10:49:31;;;;;;;1.17;1.08;;;29.10;66.60;;;;;;4990894;28;20034;-83
2021/07/23 10:52:27;;;;;;;1.88;1.10;;;29.20;65.40;;;;;;4973732;28;20402;-82
2021/07/23 10:55:12;;;;;;;0.95;0.80;;;29.40;63.70;;;;;;4982904;28;20046;-83
2021/07/23 10:57:38;;;;;;;0.70;0.65;;;29.60;62.40;;;;;;4994350;28;20030;-82
2021/07/23 11:00:05;;;;;;;0.50;0.50;;;29.70;62.00;;;;;;4994949;28;20038;-86
2021/07/23 11:02:31;;;;;;;0.50;0.50;;;29.50;60.30;;;;;;4994889;28;20038;-86
2021/07/23 11:08:19;;;;;;;1.92;1.73;;;29.80;61.50;;;;;;5066588;23;20054;-86
2021/07/23 11:10:53;;;;;;;0.65;0.65;;;30.30;61.60;;;;;;4959015;28;20030;-87
2021/07/23 11:13:19;;;;;;;0.45;0.45;;;30.50;60.70;;;;;;4948812;28;20028;-85
2021/07/23 11:15:45;;;;;;;0.63;0.38;;;30.90;60.50;;;;;;4958637;28;20070;-91
2021/07/23 11:18:15;;;;;;;0.93;0.73;;;31.10;60.00;;;;;;4958809;28;20042;-85
2021/07/23 11:20:43;;;;;;;0.30;0.30;;;30.60;61.40;;;;;;4960406;28;20035;-89
2021/07/23 11:23:14;;;;;;;0.38;0.38;;;30.70;60.90;;;;;;4975506;28;20038;-85
2021/07/23 11:25:48;;;;;;;0.25;0.25;;;30.30;63.00;;;;;;4975523;28;20023;-80
2021/07/23 11:28:13;;;;;;;0.35;0.35;;;30.00;60.50;;;;;;4969663;28;20028;-90
2021/07/23 11:30:44;;;;;;;0.75;0.75;;;29.80;60.30;;;;;;4938532;29;20035;-86
2021/07/23 11:33:09;;;;;;;0.20;0.20;;;29.90;61.50;;;;;;4961455;28;20027;-81
2021/07/23 11:35:42;;;;;;;0.35;0.35;;;29.90;62.80;;;;;;4960858;28;20427;-83
2021/07/23 11:38:14;;;;;;;1.65;0.88;;;29.60;60.60;;;;;;4957425;28;20046;-87
2021/07/23 11:40:40;;;;;;;0.35;0.35;;;29.90;59.90;;;;;;4958043;28;20034;-81
2021/07/23 11:43:06;;;;;;;4.68;1.58;;;30.20;61.30;;;;;;4971823;28;20027;-82
2021/07/23 11:45:36;;;;;;;0.40;0.40;;;30.20;61.60;;;;;;4975943;28;20035;-84
2021/07/23 11:48:13;;;;;;;0.43;0.40;;;30.50;60.30;;;;;;4957204;28;20474;-80
2021/07/23 11:50:53;;;;;;;0.30;0.30;;;30.20;61.40;;;;;;4974896;28;20073;-83
2021/07/23 11:53:19;;;;;;;0.70;0.70;;;29.90;59.10;;;;;;4974342;28;20034;-81
2021/07/23 11:55:45;;;;;;;0.40;0.40;;;29.70;59.30;;;;;;4974453;28;20038;-82
2021/07/23 11:58:31;;;;;;;0.65;0.60;;;29.20;60.00;;;;;;4952016;29;20031;-79
2021/07/23 12:00:57;;;;;;;4.47;2.22;;;29.50;59.40;;;;;;4944542;29;20035;-78
2021/07/23 12:03:25;;;;;;;14.55;5.57;;;29.70;60.70;;;;;;4935930;29;20584;-80
2021/07/23 12:05:51;;;;;;;4.20;2.28;;;29.60;61.00;;;;;;4936099;29;20032;-80
2021/07/23 12:08:19;;;;;;;0.90;0.82;;;29.90;59.80;;;;;;4917888;29;20388;-84
2021/07/23 12:10:47;;;;;;;0.30;0.30;;;30.30;59.80;;;;;;4958966;28;20038;-79
2021/07/23 12:13:16;;;;;;;0.70;0.55;;;30.60;59.40;;;;;;4963164;28;20075;-79
2021/07/23 12:15:54;;;;;;;0.30;0.30;;;31.00;59.50;;;;;;4935503;29;20094;-79
2021/07/23 12:18:22;;;;;;;0.43;0.43;;;31.10;59.80;;;;;;4935486;29;20099;-79
2021/07/23 12:20:49;;;;;;;0.40;0.40;;;31.10;59.80;;;;;;4935925;29;20050;-82
2021/07/23 12:23:28;;;;;;;0.20;0.20;;;30.80;58.80;;;;;;4918071;29;20449;-81
2021/07/23 12:25:55;;;;;;;0.60;0.60;;;31.00;59.90;;;;;;4935569;29;20027;-83
2021/07/23 12:28:22;;;;;;;1.15;1.05;;;30.90;58.60;;;;;;4941517;29;20031;-84
2021/07/23 12:30:56;;;;;;;1.10;0.73;;;30.80;58.90;;;;;;4937429;29;20130;-82
2021/07/23 12:33:30;;;;;;;1.67;1.25;;;31.00;58.70;;;;;;4936460;29;20030;-81
2021/07/23 12:36:18;;;;;;;0.73;0.65;;;31.10;59.70;;;;;;4936853;29;20066;-80
2021/07/23 12:42:50;;;;;;;0.50;0.50;;;30.80;57.70;;;;;;4911372;29;20490;-83
2021/07/23 12:46:04;;;;;;;0.73;0.47;;;31.20;58.70;;;;;;4916470;29;20031;-81
2021/07/23 12:48:36;;;;;;;0.40;0.40;;;30.60;55.80;;;;;;4934554;29;20038;-87
2021/07/23 12:51:25;;;;;;;0.40;0.40;;;30.30;57.70;;;;;;4920035;29;20042;-82
2021/07/23 12:54:16;;;;;;;0.30;0.30;;;30.80;59.00;;;;;;4902127;29;20039;-81
2021/07/23 14:03:43;;;;;;;0.60;0.60;;;32.50;53.80;;;;;;4953709;29;20501;-83
2021/07/23 14:06:09;;;;;;;1.05;0.82;;;31.90;54.90;;;;;;4935782;29;20031;-85
2021/07/23 14:08:35;;;;;;;1.70;0.77;;;31.90;53.20;;;;;;4934172;29;20530;-81
2021/07/23 14:11:07;;;;;;;0.60;0.60;;;32.70;53.20;;;;;;4935600;29;20431;-84
2021/07/23 14:13:33;;;;;;;4.57;1.38;;;32.80;50.90;;;;;;4936629;29;20038;-85
2021/07/23 14:16:06;;;;;;;0.30;0.30;;;33.10;52.40;;;;;;4936018;29;20053;-84